createdAt,value
2023-02-06T00:01:17.371Z,4.37
2023-02-06T00:03:23.001Z,4.37
2023-02-06T00:05:28.903Z,4.39
2023-02-06T00:07:36.665Z,4.37
2023-02-06T00:09:41.787Z,4.35
2023-02-06T00:11:46.876Z,4.34
2023-02-06T00:13:52.847Z,4.34
2023-02-06T00:16:03.602Z,4.38
2023-02-06T00:18:08.437Z,4.36
2023-02-06T00:20:18.213Z,4.34
2023-02-06T00:22:27.397Z,4.33
2023-02-06T00:24:32.588Z,4.32
2023-02-06T00:26:37.391Z,4.34
2023-02-06T00:28:42.209Z,4.37
2023-02-06T00:30:53.371Z,4.37
2023-02-06T00:33:00.750Z,4.38
2023-02-06T00:35:09.089Z,4.36
2023-02-06T00:37:15.256Z,4.30
2023-02-06T00:39:20.368Z,4.28
2023-02-06T00:41:25.833Z,4.29
2023-02-06T00:43:30.989Z,4.27
2023-02-06T00:45:37.306Z,4.28
2023-02-06T00:47:43.212Z,4.33
2023-02-06T00:49:56.804Z,4.32
2023-02-06T00:52:02.467Z,4.28
2023-02-06T00:54:07.720Z,4.35
2023-02-06T00:56:12.659Z,4.34
2023-02-06T00:58:18.064Z,4.32
2023-02-06T01:00:22.969Z,4.32
2023-02-06T01:02:28.733Z,4.36
2023-02-06T01:04:33.961Z,4.31
2023-02-06T01:06:46.667Z,4.27
2023-02-06T01:08:51.699Z,4.29
2023-02-06T01:10:56.841Z,4.25
2023-02-06T01:13:02.581Z,4.21
2023-02-06T01:15:08.619Z,4.21
2023-02-06T01:17:20.816Z,4.20
2023-02-06T01:19:26.173Z,4.16
2023-02-06T01:21:33.289Z,4.12
2023-02-06T01:23:42.279Z,4.10
2023-02-06T01:25:47.891Z,4.17
2023-02-06T01:27:52.958Z,4.14
2023-02-06T01:29:58.904Z,4.11
2023-02-06T01:32:05.845Z,4.08
2023-02-06T01:34:11.894Z,4.08
2023-02-06T01:36:17.917Z,4.12
2023-02-06T01:38:28.868Z,4.15
2023-02-06T01:40:36.602Z,4.15
2023-02-06T01:42:41.923Z,4.20
2023-02-06T01:44:46.739Z,4.24
2023-02-06T01:46:57.910Z,4.26
2023-02-06T01:49:06.743Z,4.24
2023-02-06T01:51:15.510Z,4.27
2023-02-06T01:53:21.866Z,4.25
2023-02-06T01:55:29.366Z,4.22
2023-02-06T01:57:39.280Z,4.17
2023-02-06T01:59:50.187Z,4.13
2023-02-06T02:01:55.842Z,4.11
2023-02-06T02:04:06.476Z,4.07
2023-02-06T02:06:25.782Z,4.04
2023-02-06T02:08:36.708Z,4.04
2023-02-06T02:10:44.054Z,4.04
2023-02-06T02:12:52.168Z,4.03
2023-02-06T02:15:01.800Z,4.03
2023-02-06T02:17:19.284Z,4.03
2023-02-06T02:20:02.320Z,4.04
2023-02-06T02:22:39.463Z,4.03
2023-02-06T02:25:06.848Z,4.01
2023-02-06T02:27:33.226Z,3.97
2023-02-06T02:30:11.356Z,3.93
2023-02-06T02:32:45.960Z,3.90
2023-02-06T02:35:10.068Z,3.90
2023-02-06T02:37:26.267Z,3.86
2023-02-06T02:39:48.063Z,3.83
2023-02-06T02:41:59.947Z,3.80
2023-02-06T02:44:10.760Z,3.76
2023-02-06T02:46:26.550Z,3.73
2023-02-06T02:48:36.251Z,3.72
2023-02-06T02:50:44.273Z,3.71
2023-02-06T02:52:49.195Z,3.69
2023-02-06T02:54:55.474Z,3.67
2023-02-06T02:57:09.661Z,3.65
2023-02-06T02:59:19.362Z,3.65
2023-02-06T03:01:32.189Z,3.62
2023-02-06T03:03:40.738Z,3.70
2023-02-06T03:06:02.463Z,3.64
2023-02-06T03:08:19.622Z,3.61
2023-02-06T03:10:35.088Z,3.62
2023-02-06T03:12:52.515Z,3.60
2023-02-06T03:15:03.196Z,3.61
2023-02-06T03:17:12.944Z,3.57
2023-02-06T03:19:22.521Z,3.51
2023-02-06T03:21:32.714Z,3.48
2023-02-06T03:23:42.028Z,3.46
2023-02-06T03:25:49.891Z,3.44
2023-02-06T03:27:56.827Z,3.44
2023-02-06T03:30:09.737Z,3.41
2023-02-06T03:32:20.945Z,3.37
2023-02-06T03:34:35.108Z,3.36
2023-02-06T03:36:42.992Z,3.35
2023-02-06T03:38:54.757Z,3.35
2023-02-06T03:41:03.316Z,3.33
2023-02-06T03:43:18.983Z,3.30
2023-02-06T03:45:30.771Z,3.34
2023-02-06T03:47:36.814Z,3.32
2023-02-06T03:49:45.410Z,3.32
2023-02-06T03:51:59.465Z,3.29
2023-02-06T03:54:08.844Z,3.28
2023-02-06T03:56:19.052Z,3.26
2023-02-06T03:58:24.900Z,3.22
2023-02-06T04:00:33.523Z,3.19
2023-02-06T04:02:42.063Z,3.15
2023-02-06T04:04:48.810Z,3.12
2023-02-06T04:06:57.709Z,3.10
2023-02-06T04:09:06.945Z,3.07
2023-02-06T04:11:11.924Z,3.03
2023-02-06T04:13:20.824Z,3.00
2023-02-06T04:15:26.349Z,2.96
2023-02-06T04:17:46.324Z,2.95
2023-02-06T04:19:56.828Z,2.92
2023-02-06T04:22:05.182Z,2.93
2023-02-06T04:24:10.623Z,2.91
2023-02-06T04:26:15.520Z,2.88
2023-02-06T04:28:20.713Z,2.85
2023-02-06T04:30:26.000Z,2.82
2023-02-06T04:32:31.622Z,2.79
2023-02-06T04:34:39.185Z,2.75
2023-02-06T04:36:44.305Z,2.73
2023-02-06T04:38:53.341Z,2.73
2023-02-06T04:41:06.212Z,2.72
2023-02-06T04:43:12.422Z,2.70
2023-02-06T04:45:18.060Z,2.68
2023-02-06T04:47:22.892Z,2.67
2023-02-06T04:49:28.499Z,2.66
2023-02-06T04:51:35.963Z,2.65
2023-02-06T04:53:42.233Z,2.64
2023-02-06T04:55:49.638Z,2.63
2023-02-06T04:57:54.914Z,2.61
2023-02-06T05:00:00.101Z,2.59
2023-02-06T05:02:04.881Z,2.60
2023-02-06T05:04:10.602Z,2.63
2023-02-06T05:06:19.106Z,2.59
2023-02-06T05:08:24.763Z,2.54
2023-02-06T05:10:32.197Z,2.47
2023-02-06T05:12:41.330Z,2.45
2023-02-06T05:14:46.545Z,2.46
2023-02-06T05:16:51.434Z,2.43
2023-02-06T05:18:57.544Z,2.42
2023-02-06T05:21:02.477Z,2.54
2023-02-06T05:23:07.484Z,2.57
2023-02-06T05:25:12.431Z,2.61
2023-02-06T05:27:17.996Z,2.60
2023-02-06T05:29:26.008Z,2.63
2023-02-06T05:31:30.932Z,2.61
2023-02-06T05:33:37.300Z,2.60
2023-02-06T05:35:43.123Z,2.52
2023-02-06T05:37:48.497Z,2.48
2023-02-06T05:39:53.371Z,2.48
2023-02-06T05:42:02.140Z,2.42
2023-02-06T05:44:07.456Z,2.39
2023-02-06T05:46:15.497Z,2.39
2023-02-06T05:48:20.867Z,2.40
2023-02-06T05:50:26.397Z,2.48
2023-02-06T05:52:31.340Z,2.46
2023-02-06T05:54:37.708Z,2.55
2023-02-06T05:56:42.846Z,2.61
2023-02-06T05:58:49.658Z,2.68
2023-02-06T06:00:55.528Z,2.74
2023-02-06T06:03:03.803Z,2.82
2023-02-06T06:05:09.873Z,2.81
2023-02-06T06:07:18.482Z,2.77
2023-02-06T06:09:23.682Z,2.77
2023-02-06T06:11:36.802Z,2.71
2023-02-06T06:13:41.655Z,2.70
2023-02-06T06:15:46.680Z,2.68
2023-02-06T06:17:52.022Z,2.69
2023-02-06T06:20:02.433Z,2.70
2023-02-06T06:22:07.503Z,2.71
2023-02-06T06:24:12.642Z,2.71
2023-02-06T06:26:17.494Z,2.77
2023-02-06T06:28:22.454Z,2.73
2023-02-06T06:30:27.399Z,2.69
2023-02-06T06:32:33.288Z,2.71
2023-02-06T06:34:39.996Z,2.71
2023-02-06T06:36:50.541Z,2.73
2023-02-06T06:38:55.886Z,2.73
2023-02-06T06:41:03.900Z,2.76
2023-02-06T06:43:09.210Z,2.78
2023-02-06T06:45:14.164Z,2.76
2023-02-06T06:47:19.457Z,2.73
2023-02-06T06:49:29.072Z,2.70
2023-02-06T06:51:41.153Z,2.72
2023-02-06T06:53:48.733Z,2.67
2023-02-06T06:55:55.582Z,2.62
2023-02-06T06:58:00.769Z,2.60
2023-02-06T07:00:07.829Z,2.59
2023-02-06T07:02:14.077Z,2.59
2023-02-06T07:04:19.228Z,2.60
2023-02-06T07:06:24.872Z,2.56
2023-02-06T07:08:31.208Z,2.56
2023-02-06T07:10:41.620Z,2.57
2023-02-06T07:12:53.681Z,2.56
2023-02-06T07:15:08.264Z,2.51
2023-02-06T07:17:13.849Z,2.48
2023-02-06T07:19:18.981Z,2.45
2023-02-06T07:21:24.347Z,2.42
2023-02-06T07:23:29.801Z,2.48
2023-02-06T07:25:38.429Z,2.45
2023-02-06T07:27:46.634Z,2.46
2023-02-06T07:29:51.552Z,2.47
2023-02-06T07:31:58.945Z,2.48
2023-02-06T07:34:05.161Z,2.47
2023-02-06T07:36:14.802Z,2.48
2023-02-06T07:38:19.621Z,2.50
2023-02-06T07:40:27.669Z,2.51
2023-02-06T07:42:36.506Z,2.54
2023-02-06T07:44:44.040Z,2.60
2023-02-06T07:46:49.607Z,2.61
2023-02-06T07:48:54.746Z,2.62
2023-02-06T07:51:00.634Z,2.64
2023-02-06T07:53:06.478Z,2.64
2023-02-06T07:55:14.428Z,2.67
2023-02-06T07:57:20.215Z,2.69
2023-02-06T07:59:25.934Z,2.72
2023-02-06T08:01:34.067Z,2.72
2023-02-06T08:03:41.689Z,2.76
2023-02-06T08:05:46.674Z,2.81
2023-02-06T08:07:53.114Z,2.84
2023-02-06T08:09:59.210Z,2.89
2023-02-06T08:12:07.388Z,2.92
2023-02-06T08:14:13.961Z,2.96
2023-02-06T08:16:21.204Z,2.98
2023-02-06T08:18:29.256Z,3.02
2023-02-06T08:20:36.569Z,3.04
2023-02-06T08:22:41.953Z,3.07
2023-02-06T08:24:46.751Z,3.09
2023-02-06T08:26:51.906Z,3.12
2023-02-06T08:29:02.212Z,3.12
2023-02-06T08:31:13.189Z,3.16
2023-02-06T08:33:18.423Z,3.19
2023-02-06T08:35:26.322Z,3.20
2023-02-06T08:37:31.171Z,3.24
2023-02-06T08:39:38.514Z,3.25
2023-02-06T08:41:45.372Z,3.26
2023-02-06T08:43:51.263Z,3.30
2023-02-06T08:46:00.869Z,3.32
2023-02-06T08:48:07.138Z,3.40
2023-02-06T08:50:12.278Z,3.44
2023-02-06T08:52:20.022Z,3.48
2023-02-06T08:54:27.104Z,3.51
2023-02-06T08:56:33.579Z,3.60
2023-02-06T08:58:40.211Z,3.67
2023-02-06T09:00:45.533Z,3.68
2023-02-06T09:02:52.342Z,3.70
2023-02-06T09:04:59.906Z,3.71
2023-02-06T09:07:05.040Z,3.68
2023-02-06T09:09:17.595Z,3.66
2023-02-06T09:11:27.102Z,3.70
2023-02-06T09:13:32.441Z,3.78
2023-02-06T09:15:38.107Z,3.81
2023-02-06T09:17:46.704Z,3.86
2023-02-06T09:19:52.562Z,3.88
2023-02-06T09:21:59.236Z,3.92
2023-02-06T09:24:07.308Z,3.95
2023-02-06T09:26:16.111Z,3.96
2023-02-06T09:28:21.138Z,4.09
2023-02-06T09:30:26.331Z,4.15
2023-02-06T09:32:31.111Z,4.18
2023-02-06T09:34:37.869Z,4.26
2023-02-06T09:36:43.547Z,4.36
2023-02-06T09:38:54.436Z,4.42
2023-02-06T09:41:00.370Z,4.53
2023-02-06T09:43:09.780Z,4.57
2023-02-06T09:45:18.210Z,4.69
2023-02-06T09:47:28.662Z,4.89
2023-02-06T09:49:46.311Z,5.12
2023-02-06T09:52:21.420Z,5.21
2023-02-06T09:54:38.059Z,5.45
2023-02-06T09:56:51.858Z,5.58
2023-02-06T09:59:06.251Z,5.68
2023-02-06T10:01:21.820Z,5.79
2023-02-06T10:03:52.837Z,5.96
2023-02-06T10:06:08.909Z,5.92
2023-02-06T10:08:20.101Z,6.12
2023-02-06T10:10:38.660Z,6.33
2023-02-06T10:12:48.999Z,6.52
2023-02-06T10:15:02.982Z,6.52
2023-02-06T10:17:17.712Z,6.70
2023-02-06T10:19:28.578Z,6.64
2023-02-06T10:21:41.653Z,6.44
2023-02-06T10:23:55.602Z,6.50
2023-02-06T10:26:12.552Z,6.65
2023-02-06T10:28:26.109Z,6.68
2023-02-06T10:30:51.940Z,6.75
2023-02-06T10:33:02.636Z,6.85
2023-02-06T10:35:27.687Z,7.07
2023-02-06T10:37:58.891Z,7.11
2023-02-06T10:40:20.262Z,7.33
2023-02-06T10:42:36.361Z,7.29
2023-02-06T10:44:54.550Z,7.24
2023-02-06T10:47:06.279Z,7.36
2023-02-06T10:49:22.661Z,7.29
2023-02-06T10:51:33.308Z,7.19
2023-02-06T10:53:41.939Z,7.09
2023-02-06T10:56:01.344Z,7.07
2023-02-06T10:58:16.248Z,6.92
2023-02-06T11:00:28.978Z,7.36
2023-02-06T11:03:06.295Z,7.38
2023-02-06T11:05:16.152Z,7.39
2023-02-06T11:07:27.307Z,7.83
2023-02-06T11:09:32.700Z,7.93
2023-02-06T11:11:42.077Z,7.82
2023-02-06T11:13:49.151Z,7.88
2023-02-06T11:16:02.558Z,7.83
2023-02-06T11:18:18.057Z,7.72
2023-02-06T11:20:28.317Z,8.19
2023-02-06T11:22:44.286Z,7.95
2023-02-06T11:25:08.090Z,7.89
2023-02-06T11:27:20.764Z,7.69
2023-02-06T11:29:29.953Z,7.51
2023-02-06T11:31:46.662Z,7.58
2023-02-06T11:33:57.507Z,7.59
2023-02-06T11:36:05.010Z,7.89
2023-02-06T11:38:20.450Z,8.08
2023-02-06T11:40:29.581Z,8.23
2023-02-06T11:42:37.810Z,7.98
2023-02-06T11:44:48.640Z,7.89
2023-02-06T11:47:00.188Z,7.63
2023-02-06T11:49:11.076Z,7.84
2023-02-06T11:51:17.017Z,7.89
2023-02-06T11:53:21.838Z,7.93
2023-02-06T11:55:36.142Z,7.57
2023-02-06T11:57:41.789Z,7.71
2023-02-06T11:59:54.586Z,8.09
2023-02-06T12:02:02.174Z,8.32
2023-02-06T12:04:28.324Z,8.57
2023-02-06T12:06:38.107Z,8.76
2023-02-06T12:08:49.669Z,9.03
2023-02-06T12:11:00.057Z,9.15
2023-02-06T12:13:11.554Z,9.32
2023-02-06T12:15:44.748Z,9.22
2023-02-06T12:17:56.790Z,9.30
2023-02-06T12:20:11.309Z,9.22
2023-02-06T12:22:21.509Z,9.22
2023-02-06T12:24:35.159Z,9.59
2023-02-06T12:26:45.937Z,9.75
2023-02-06T12:28:59.888Z,9.90
2023-02-06T12:31:12.667Z,10.07
2023-02-06T12:33:22.595Z,10.08
2023-02-06T12:35:37.883Z,9.97
2023-02-06T12:37:48.660Z,10.24
2023-02-06T12:39:54.741Z,10.10
2023-02-06T12:42:27.549Z,9.93
2023-02-06T12:44:37.458Z,9.62
2023-02-06T12:46:53.409Z,9.44
2023-02-06T12:49:07.877Z,9.15
2023-02-06T12:51:22.730Z,8.83
2023-02-06T12:53:32.654Z,8.51
2023-02-06T12:55:44.431Z,8.46
2023-02-06T12:57:49.668Z,8.71
2023-02-06T13:00:27.141Z,8.92
2023-02-06T13:02:55.838Z,9.12
2023-02-06T13:05:04.144Z,9.35
2023-02-06T13:07:15.211Z,9.59
2023-02-06T13:09:26.016Z,9.79
2023-02-06T13:11:43.487Z,9.67
2023-02-06T13:13:49.680Z,9.81
2023-02-06T13:16:00.691Z,9.82
2023-02-06T13:18:07.712Z,9.92
2023-02-06T13:20:17.153Z,10.09
2023-02-06T13:22:46.884Z,9.85
2023-02-06T13:24:54.479Z,9.98
2023-02-06T13:27:17.440Z,9.97
2023-02-06T13:29:28.270Z,9.90
2023-02-06T13:34:35.514Z,10.17
2023-02-06T13:37:16.313Z,10.24
2023-02-06T13:39:33.626Z,10.03
2023-02-06T13:41:42.512Z,9.82
2023-02-06T13:43:52.448Z,9.73
2023-02-06T13:46:02.025Z,9.72
2023-02-06T13:48:50.217Z,9.47
2023-02-06T13:51:12.540Z,9.27
2023-02-06T13:53:45.606Z,9.17
2023-02-06T13:56:06.284Z,9.04
2023-02-06T13:58:49.208Z,8.81
2023-02-06T14:00:55.509Z,8.87
2023-02-06T14:03:09.293Z,8.81
2023-02-06T14:05:17.588Z,8.79
2023-02-06T14:07:50.590Z,8.90
2023-02-06T14:10:20.412Z,9.03
2023-02-06T14:12:44.524Z,9.04
2023-02-06T14:15:03.840Z,9.10
2023-02-06T14:17:21.374Z,8.90
2023-02-06T14:19:35.065Z,8.85
2023-02-06T14:21:48.713Z,8.67
2023-02-06T14:24:19.743Z,8.50
2023-02-06T14:26:39.265Z,8.50
2023-02-06T14:28:56.865Z,8.48
2023-02-06T14:31:15.815Z,8.36
2023-02-06T14:33:53.388Z,8.33
2023-02-06T14:36:11.159Z,8.33
2023-02-06T14:38:43.026Z,8.19
2023-02-06T14:40:53.578Z,8.05
2023-02-06T14:43:04.685Z,8.08
2023-02-06T14:45:29.360Z,7.96
2023-02-06T14:47:45.439Z,7.93
2023-02-06T14:49:52.102Z,7.90
2023-02-06T14:52:01.456Z,7.95
2023-02-06T14:54:09.884Z,8.14
2023-02-06T14:56:22.205Z,8.27
2023-02-06T14:58:29.972Z,8.43
2023-02-06T15:00:37.875Z,8.55
2023-02-06T15:02:44.041Z,8.85
2023-02-06T15:04:56.192Z,8.87
2023-02-06T15:07:03.391Z,8.93
2023-02-06T15:09:09.771Z,8.75
2023-02-06T15:11:23.470Z,8.90
2023-02-06T15:13:37.675Z,8.86
2023-02-06T15:15:58.200Z,8.78
2023-02-06T15:18:08.300Z,8.64
2023-02-06T15:20:32.799Z,8.60
2023-02-06T15:22:41.864Z,8.56
2023-02-06T15:25:01.036Z,8.60
2023-02-06T15:27:19.600Z,8.53
2023-02-06T15:29:28.006Z,8.35
2023-02-06T15:31:38.208Z,8.14
2023-02-06T15:33:45.671Z,8.08
2023-02-06T15:35:56.315Z,7.91
2023-02-06T15:38:07.765Z,7.84
2023-02-06T15:40:23.079Z,7.82
2023-02-06T15:42:28.217Z,7.71
2023-02-06T15:44:39.265Z,7.60
2023-02-06T15:46:49.414Z,7.61
2023-02-06T15:49:03.933Z,7.50
2023-02-06T15:51:26.211Z,7.39
2023-02-06T15:53:37.791Z,7.32
2023-02-06T15:55:44.668Z,7.22
2023-02-06T15:57:49.646Z,7.18
2023-02-06T15:59:54.643Z,7.02
2023-02-06T16:02:03.877Z,6.97
2023-02-06T16:04:15.511Z,6.92
2023-02-06T16:06:22.384Z,6.88
2023-02-06T16:08:31.386Z,6.87
2023-02-06T16:10:43.755Z,6.79
2023-02-06T16:12:49.599Z,6.69
2023-02-06T16:14:59.039Z,6.60
2023-02-06T16:17:26.586Z,6.57
2023-02-06T16:19:44.274Z,6.55
2023-02-06T16:22:18.254Z,6.48
2023-02-06T16:24:24.328Z,6.42
2023-02-06T16:26:32.646Z,6.36
2023-02-06T16:28:49.612Z,6.33
2023-02-06T16:30:59.824Z,6.31
2023-02-06T16:33:17.599Z,6.24
2023-02-06T16:35:25.845Z,6.18
2023-02-06T16:37:33.146Z,6.12
2023-02-06T16:39:40.433Z,6.08
2023-02-06T16:41:45.478Z,6.05
2023-02-06T16:43:50.548Z,6.01
2023-02-06T16:45:55.612Z,5.93
2023-02-06T16:48:00.404Z,5.87
2023-02-06T16:50:10.447Z,5.84
2023-02-06T16:52:25.474Z,5.77
2023-02-06T16:54:32.516Z,5.69
2023-02-06T16:56:38.686Z,5.64
2023-02-06T16:58:45.557Z,5.55
2023-02-06T17:00:51.001Z,5.57
2023-02-06T17:03:00.166Z,5.57
2023-02-06T17:05:08.001Z,5.48
2023-02-06T17:07:17.474Z,5.53
2023-02-06T17:09:26.274Z,5.57
2023-02-06T17:11:31.374Z,5.55
2023-02-06T17:13:36.648Z,5.55
2023-02-06T17:15:41.996Z,5.48
2023-02-06T17:17:51.844Z,5.44
2023-02-06T17:19:58.696Z,5.36
2023-02-06T17:22:06.643Z,5.29
2023-02-06T17:24:11.826Z,5.20
2023-02-06T17:26:20.031Z,5.15
2023-02-06T17:28:24.813Z,5.16
2023-02-06T17:30:30.242Z,5.18
2023-02-06T17:32:35.651Z,5.16
2023-02-06T17:34:40.581Z,5.12
2023-02-06T17:36:45.704Z,5.05
2023-02-06T17:38:53.205Z,4.99
2023-02-06T17:40:58.172Z,4.97
2023-02-06T17:43:04.918Z,4.93
2023-02-06T17:45:11.079Z,4.87
2023-02-06T17:47:16.139Z,4.86
2023-02-06T17:49:21.296Z,4.83
2023-02-06T17:51:26.466Z,4.77
2023-02-06T17:53:36.522Z,4.71
2023-02-06T17:55:45.257Z,4.69
2023-02-06T17:57:51.103Z,4.61
2023-02-06T17:59:56.913Z,4.56
2023-02-06T18:02:04.453Z,4.51
2023-02-06T18:04:10.323Z,4.43
2023-02-06T18:06:16.301Z,4.35
2023-02-06T18:08:21.783Z,4.25
2023-02-06T18:10:28.792Z,4.15
2023-02-06T18:12:36.781Z,4.07
2023-02-06T18:14:42.653Z,3.96
2023-02-06T18:16:48.072Z,3.89
2023-02-06T18:18:53.350Z,3.83
2023-02-06T18:20:58.250Z,3.78
2023-02-06T18:23:03.273Z,3.75
2023-02-06T18:25:10.746Z,3.70
2023-02-06T18:27:16.494Z,3.77
2023-02-06T18:29:23.990Z,3.79
2023-02-06T18:31:33.367Z,3.78
2023-02-06T18:33:40.553Z,3.73
2023-02-06T18:35:51.813Z,3.64
2023-02-06T18:37:56.941Z,3.64
2023-02-06T18:40:02.915Z,3.69
2023-02-06T18:42:20.305Z,3.67
2023-02-06T18:44:28.306Z,3.63
2023-02-06T18:46:33.508Z,3.60
2023-02-06T18:48:40.807Z,3.57
2023-02-06T18:50:45.980Z,3.46
2023-02-06T18:52:53.584Z,3.38
2023-02-06T18:54:59.010Z,3.28
2023-02-06T18:57:06.059Z,3.20
2023-02-06T18:59:10.802Z,3.13
2023-02-06T19:01:22.716Z,3.06
2023-02-06T19:03:27.708Z,3.01
2023-02-06T19:05:32.671Z,2.95
2023-02-06T19:07:37.682Z,2.84
2023-02-06T19:09:44.373Z,2.83
2023-02-06T19:11:50.925Z,2.75
2023-02-06T19:13:56.048Z,2.70
2023-02-06T19:16:07.352Z,2.61
2023-02-06T19:18:14.826Z,2.57
2023-02-06T19:20:19.729Z,2.50
2023-02-06T19:22:24.791Z,2.46
2023-02-06T19:24:30.841Z,2.44
2023-02-06T19:26:36.452Z,2.45
2023-02-06T19:28:42.548Z,2.41
2023-02-06T19:30:47.830Z,2.36
2023-02-06T19:32:53.485Z,2.30
2023-02-06T19:35:03.899Z,2.29
2023-02-06T19:37:10.732Z,2.20
2023-02-06T19:39:16.564Z,2.18
2023-02-06T19:41:24.843Z,2.13
2023-02-06T19:43:29.758Z,2.09
2023-02-06T19:45:37.361Z,2.06
2023-02-06T19:47:42.446Z,2.04
2023-02-06T19:49:52.680Z,2.01
2023-02-06T19:52:00.840Z,1.98
2023-02-06T19:54:06.409Z,1.97
2023-02-06T19:56:11.704Z,1.91
2023-02-06T19:58:16.892Z,1.90
2023-02-06T20:00:22.354Z,1.88
2023-02-06T20:02:28.462Z,1.87
2023-02-06T20:04:40.143Z,1.82
2023-02-06T20:06:46.494Z,1.82
2023-02-06T20:08:55.112Z,1.79
2023-02-06T20:11:00.964Z,1.82
2023-02-06T20:13:06.578Z,1.79
2023-02-06T20:15:12.194Z,1.75
2023-02-06T20:17:18.222Z,1.77
2023-02-06T20:19:28.874Z,1.73
2023-02-06T20:21:39.310Z,1.69
2023-02-06T20:23:44.519Z,1.66
2023-02-06T20:25:52.259Z,1.64
2023-02-06T20:27:57.900Z,1.60
2023-02-06T20:30:05.250Z,1.56
2023-02-06T20:32:11.154Z,1.53
2023-02-06T20:34:16.143Z,1.47
2023-02-06T20:36:24.954Z,1.45
2023-02-06T20:38:29.933Z,1.42
2023-02-06T20:40:37.184Z,1.39
2023-02-06T20:42:45.251Z,1.35
2023-02-06T20:44:53.333Z,1.35
2023-02-06T20:46:58.220Z,1.30
2023-02-06T20:49:09.326Z,1.27
2023-02-06T20:51:15.290Z,1.25
2023-02-06T20:53:20.057Z,1.22
2023-02-06T20:55:24.985Z,1.19
2023-02-06T20:57:31.242Z,1.15
2023-02-06T20:59:41.963Z,1.16
2023-02-06T21:01:50.249Z,1.15
2023-02-06T21:03:57.949Z,1.10
2023-02-06T21:06:02.794Z,1.08
2023-02-06T21:08:08.152Z,1.06
2023-02-06T21:10:13.520Z,1.05
2023-02-06T21:12:19.139Z,1.05
2023-02-06T21:14:25.623Z,1.00
2023-02-06T21:16:34.702Z,0.92
2023-02-06T21:18:42.804Z,0.91
2023-02-06T21:20:48.023Z,0.88
2023-02-06T21:22:54.862Z,0.86
2023-02-06T21:25:00.101Z,0.84
2023-02-06T21:27:05.227Z,0.84
2023-02-06T21:29:10.863Z,0.82
2023-02-06T21:31:18.334Z,0.83
2023-02-06T21:33:25.769Z,0.84
2023-02-06T21:35:33.902Z,0.79
2023-02-06T21:37:47.196Z,0.75
2023-02-06T21:39:52.273Z,0.74
2023-02-06T21:41:58.498Z,0.69
2023-02-06T21:44:03.549Z,0.66
2023-02-06T21:46:13.098Z,0.62
2023-02-06T21:48:19.713Z,0.59
2023-02-06T21:50:28.304Z,0.61
2023-02-06T21:52:37.891Z,0.54
2023-02-06T21:54:43.012Z,0.50
2023-02-06T21:56:48.660Z,0.51
2023-02-06T21:58:55.003Z,0.50
2023-02-06T22:01:00.375Z,0.46
2023-02-06T22:03:05.640Z,0.42
2023-02-06T22:05:10.938Z,0.40
2023-02-06T22:07:19.997Z,0.40
2023-02-06T22:09:25.009Z,0.34
2023-02-06T22:11:31.732Z,0.34
2023-02-06T22:13:36.857Z,0.31
2023-02-06T22:15:42.173Z,0.28
2023-02-06T22:17:46.982Z,0.23
2023-02-06T22:19:52.394Z,0.24
2023-02-06T22:21:58.039Z,0.24
2023-02-06T22:24:08.346Z,0.19
2023-02-06T22:26:16.427Z,0.15
2023-02-06T22:28:21.509Z,0.13
2023-02-06T22:30:26.603Z,0.14
2023-02-06T22:32:31.812Z,0.11
2023-02-06T22:34:36.829Z,0.08
2023-02-06T22:36:42.940Z,0.12
2023-02-06T22:38:56.121Z,0.10
2023-02-06T22:41:07.284Z,0.07
2023-02-06T22:43:12.213Z,0.05
2023-02-06T22:45:19.853Z,0.03
2023-02-06T22:47:24.972Z,0.00
2023-02-06T22:49:30.090Z,-0.02
2023-02-06T22:51:36.232Z,-0.02
2023-02-06T22:53:40.342Z,-0.06
2023-02-06T22:55:57.636Z,-0.12
2023-02-06T22:58:05.268Z,-0.09
2023-02-06T23:00:15.189Z,-0.11
2023-02-06T23:02:20.173Z,-0.11
2023-02-06T23:04:28.313Z,-0.09
2023-02-06T23:06:35.291Z,-0.07
2023-02-06T23:08:41.303Z,-0.06
2023-02-06T23:10:49.416Z,-0.08
2023-02-06T23:12:54.951Z,-0.08
2023-02-06T23:15:02.727Z,-0.13
2023-02-06T23:17:07.661Z,-0.13
2023-02-06T23:19:14.043Z,-0.19
2023-02-06T23:21:21.027Z,-0.22
2023-02-06T23:23:26.496Z,-0.26
2023-02-06T23:25:31.373Z,-0.25
2023-02-06T23:27:36.745Z,-0.25
2023-02-06T23:29:41.741Z,-0.29
2023-02-06T23:31:50.792Z,-0.34
2023-02-06T23:33:57.666Z,-0.34
2023-02-06T23:36:07.173Z,-0.35
2023-02-06T23:38:12.936Z,-0.39
2023-02-06T23:40:18.976Z,-0.42
2023-02-06T23:42:25.147Z,-0.45
2023-02-06T23:44:31.406Z,-0.47
2023-02-06T23:46:41.981Z,-0.49
2023-02-06T23:48:49.793Z,-0.48
2023-02-06T23:50:56.363Z,-0.50
2023-02-06T23:53:02.487Z,-0.51
2023-02-06T23:55:07.766Z,-0.52
2023-02-06T23:57:12.564Z,-0.54
2023-02-06T23:59:19.885Z,-0.55
